Time;durP1;ratioP1;P1;durP2;ratioP2;P2;SDS_P1;SDS_P2;PMS_P1;PMS_P2;Temp;Humidity;BMP_temperature;BMP_pressure;BME280_temperature;BME280_humidity;BME280_pressure;Samples;Min_cycle;Max_cycle;Signal;HPM_P1;HPM_P2
2022/10/05 00:02:21;;;;;;;6.65;3.55;;;;;;;12.97;48.76;101507.72;4982158;28;20188;-77
2022/10/05 00:04:51;;;;;;;8.15;3.33;;;;;;;12.98;48.56;101504.22;4983590;28;20034;-77
2022/10/05 00:07:19;;;;;;;8.15;3.67;;;;;;;13.17;48.35;101513.94;4989580;28;20392;-77
2022/10/05 00:09:52;;;;;;;5.47;3.28;;;;;;;13.27;47.95;101504.75;4978995;28;20018;-77
2022/10/05 00:12:20;;;;;;;7.80;4.47;;;;;;;13.19;48.38;101502.47;4996373;28;20133;-78
2022/10/05 00:14:49;;;;;;;9.05;3.53;;;;;;;13.22;48.40;101506.72;5014093;28;20034;-78
2022/10/05 00:17:20;;;;;;;8.88;4.35;;;;;;;12.70;49.92;101513.16;5012648;28;20198;-77
2022/10/05 00:19:51;;;;;;;9.33;4.00;;;;;;;12.98;49.02;101519.06;5018167;28;20026;-78
2022/10/05 00:22:21;;;;;;;7.07;3.75;;;;;;;12.81;49.60;101514.50;5002409;28;20041;-78
2022/10/05 00:24:53;;;;;;;8.32;3.53;;;;;;;13.09;49.15;101523.00;4983593;28;20061;-78
2022/10/05 00:27:22;;;;;;;11.18;3.67;;;;;;;12.84;49.89;101517.00;4993008;28;20041;-78
2022/10/05 00:29:50;;;;;;;9.15;3.92;;;;;;;12.89;49.49;101530.78;5000379;28;20018;-78
2022/10/05 00:32:16;;;;;;;8.70;4.30;;;;;;;13.23;49.06;101532.94;4999337;28;20495;-77
2022/10/05 00:34:42;;;;;;;8.15;3.85;;;;;;;13.27;48.41;101529.25;5005159;28;20111;-79
2022/10/05 00:37:09;;;;;;;8.20;4.38;;;;;;;13.34;48.39;101535.13;5001330;28;20496;-77
2022/10/05 00:39:36;;;;;;;8.43;4.25;;;;;;;13.07;49.08;101535.31;5006645;28;20448;-76
2022/10/05 00:42:36;;;;;;;5.50;3.50;;;;;;;12.93;49.70;101526.28;4991383;28;20138;-76
2022/10/05 00:45:28;;;;;;;6.10;3.75;;;;;;;12.99;49.61;101516.41;4993324;28;20144;-81
2022/10/05 00:47:53;;;;;;;;;;;;;;;13.21;48.95;101505.03;5005719;28;20127;-79
2022/10/05 00:50:25;;;;;;;7.25;4.43;;;;;;;12.89;49.96;101502.81;5004659;28;19995;-80
2022/10/05 00:53:00;;;;;;;8.25;4.43;;;;;;;12.54;50.82;101491.03;4994698;28;20049;-80
2022/10/05 00:55:38;;;;;;;7.32;4.20;;;;;;;13.00;49.74;101486.59;4979689;28;20104;-79
2022/10/05 00:59:00;;;;;;;9.77;4.35;;;;;;;12.87;50.28;101481.03;4990062;28;20057;-81
2022/10/05 01:01:58;;;;;;;11.38;4.40;;;;;;;13.02;49.72;101474.28;4985238;28;20042;-77
2022/10/05 01:05:01;;;;;;;7.45;4.30;;;;;;;13.15;49.35;101460.66;5002418;28;20131;-80
2022/10/05 01:07:55;;;;;;;6.88;3.85;;;;;;;13.25;49.29;101460.22;4996013;28;20056;-78
2022/10/05 01:10:31;;;;;;;9.30;3.60;;;;;;;13.38;48.81;101463.16;4986625;28;20120;-79
2022/10/05 01:13:21;;;;;;;5.18;3.35;;;;;;;13.14;49.57;101464.19;4999733;28;20136;-78
2022/10/05 01:15:54;;;;;;;8.65;4.45;;;;;;;13.31;49.18;101475.69;5004764;28;20034;-79
2022/10/05 01:18:29;;;;;;;9.65;4.10;;;;;;;12.65;50.69;101460.00;5001694;28;20049;-76
2022/10/05 01:21:19;;;;;;;6.18;4.07;;;;;;;13.17;49.51;101464.09;4982711;28;20084;-80
2022/10/05 01:24:00;;;;;;;10.68;4.43;;;;;;;12.76;50.28;101461.34;5002439;28;20038;-79
2022/10/05 01:26:54;;;;;;;4.70;3.50;;;;;;;13.24;49.32;101448.00;4991577;28;20645;-80
2022/10/05 01:29:45;;;;;;;7.38;3.47;;;;;;;13.31;49.11;101432.84;4985100;28;20046;-77
2022/10/05 01:32:28;;;;;;;11.27;4.57;;;;;;;12.60;51.03;101440.97;4985883;28;20048;-80
2022/10/05 01:35:16;;;;;;;8.13;4.47;;;;;;;12.90;50.07;101438.06;4987474;28;20121;-79
2022/10/05 01:38:04;;;;;;;4.93;3.65;;;;;;;13.11;49.58;101441.56;4978958;28;20071;-77
2022/10/05 01:40:42;;;;;;;9.90;4.38;;;;;;;12.91;50.22;101445.00;4996079;28;20109;-77
2022/10/05 01:43:20;;;;;;;9.55;3.55;;;;;;;13.01;49.89;101445.50;4980586;28;20061;-79
2022/10/05 01:46:13;;;;;;;5.90;3.50;;;;;;;13.31;49.19;101443.34;4989234;28;20038;-80
2022/10/05 01:49:16;;;;;;;7.35;3.13;;;;;;;13.27;49.40;101449.63;5017530;28;20065;-78
2022/10/05 01:52:01;;;;;;;8.77;3.83;;;;;;;12.92;50.05;101451.97;4995094;28;20029;-80
2022/10/05 01:54:32;;;;;;;6.85;3.85;;;;;;;13.16;49.36;101454.47;4988850;28;20022;-78
2022/10/05 01:57:18;;;;;;;5.82;3.90;;;;;;;13.35;48.91;101444.94;4984787;28;21275;-77
2022/10/05 01:59:46;;;;;;;6.72;3.53;;;;;;;13.24;49.34;101434.03;5000381;28;20121;-78
2022/10/05 02:02:16;;;;;;;7.40;3.75;;;;;;;12.89;50.26;101425.84;4979917;28;20041;-78
2022/10/05 02:04:47;;;;;;;5.60;3.42;;;;;;;13.20;49.59;101414.06;5003174;28;20033;-79
2022/10/05 02:07:28;;;;;;;5.05;3.42;;;;;;;12.87;50.38;101407.56;4997651;28;20065;-79
2022/10/05 02:09:58;;;;;;;5.95;3.42;;;;;;;13.36;49.16;101407.25;4994856;28;20034;-79
2022/10/05 02:12:28;;;;;;;6.85;3.60;;;;;;;13.22;49.25;101399.13;5002273;28;20082;-78
2022/10/05 02:15:01;;;;;;;6.82;3.75;;;;;;;13.01;49.70;101393.88;5018749;28;20042;-79
2022/10/05 02:17:37;;;;;;;5.90;2.88;;;;;;;13.09;49.43;101402.28;5016107;28;20041;-79
2022/10/05 02:20:09;;;;;;;7.82;3.55;;;;;;;13.18;49.09;101401.00;5002571;28;20096;-77
2022/10/05 02:22:45;;;;;;;7.65;4.05;;;;;;;12.93;49.76;101410.84;5017460;28;20044;-76
2022/10/05 02:25:15;;;;;;;5.40;3.13;;;;;;;12.98;49.81;101399.25;5002401;28;20100;-77
2022/10/05 02:27:53;;;;;;;9.73;3.22;;;;;;;12.87;50.04;101396.19;4999396;28;20050;-77
2022/10/05 02:30:20;;;;;;;5.72;3.17;;;;;;;13.18;49.20;101398.38;4998830;28;20028;-76
2022/10/05 02:33:02;;;;;;;8.93;3.40;;;;;;;13.28;49.13;101396.22;5016032;28;20049;-78
2022/10/05 02:35:28;;;;;;;5.97;3.00;;;;;;;13.08;49.28;101395.31;5002067;28;20029;-78
2022/10/05 02:38:09;;;;;;;4.60;2.80;;;;;;;13.40;48.62;101389.59;5003367;28;20515;-77
2022/10/05 02:40:47;;;;;;;5.13;2.90;;;;;;;13.12;49.34;101393.41;5005176;28;20507;-78
2022/10/05 02:43:16;;;;;;;4.15;2.65;;;;;;;13.18;49.18;101400.16;5009475;28;20315;-77
2022/10/05 02:45:57;;;;;;;7.35;2.55;;;;;;;13.22;49.01;101394.72;4987306;28;20034;-79
2022/10/05 02:48:42;;;;;;;7.45;3.10;;;;;;;13.19;49.14;101394.84;4995997;28;20050;-78
2022/10/05 02:51:25;;;;;;;6.70;3.40;;;;;;;12.63;50.44;101388.41;4993466;28;20919;-77
2022/10/05 02:54:13;;;;;;;3.17;2.55;;;;;;;13.24;49.30;101384.16;4997606;28;20088;-79
2022/10/05 02:56:57;;;;;;;5.60;3.20;;;;;;;12.61;50.85;101384.97;5011158;28;20048;-78
2022/10/05 02:59:43;;;;;;;4.60;2.80;;;;;;;12.91;50.05;101376.78;4982456;28;20692;-77
2022/10/05 03:02:45;;;;;;;5.53;3.05;;;;;;;12.68;50.74;101373.31;5001970;28;20061;-80
2022/10/05 03:05:24;;;;;;;6.30;2.83;;;;;;;12.69;50.41;101375.06;4989639;28;20125;-77
2022/10/05 03:08:16;;;;;;;4.00;2.50;;;;;;;13.27;49.07;101377.00;4987215;28;20045;-76
2022/10/05 03:11:16;;;;;;;3.22;2.35;;;;;;;13.27;49.30;101379.63;5003091;28;20026;-77
2022/10/05 03:13:50;;;;;;;4.32;2.80;;;;;;;12.68;50.55;101378.56;4984624;28;20049;-78
2022/10/05 03:16:42;;;;;;;5.30;2.25;;;;;;;12.82;50.33;101371.94;5001818;28;20038;-78
2022/10/05 03:19:35;;;;;;;4.68;3.03;;;;;;;12.95;49.71;101378.38;4978004;28;20053;-78
2022/10/05 03:22:41;;;;;;;2.92;2.63;;;;;;;13.06;49.84;101381.38;4997606;28;20142;-78
2022/10/05 03:25:18;;;;;;;5.10;3.33;;;;;;;13.13;49.71;101370.63;4987745;28;20608;-80
2022/10/05 03:28:12;;;;;;;5.07;2.60;;;;;;;12.89;50.38;101376.88;5002490;28;20069;-80
2022/10/05 03:30:54;;;;;;;8.60;2.67;;;;;;;13.15;49.61;101374.91;4988346;28;20037;-81
2022/10/05 03:33:44;;;;;;;8.38;2.97;;;;;;;12.92;50.51;101361.91;5000571;28;20058;-78
2022/10/05 03:36:25;;;;;;;3.70;2.20;;;;;;;13.01;50.07;101364.16;5024597;28;20045;-78
2022/10/05 03:39:33;;;;;;;8.07;3.22;;;;;;;12.99;50.14;101364.22;4999395;28;20061;-80
2022/10/05 03:42:11;;;;;;;8.15;3.30;;;;;;;13.08;50.00;101361.19;4929830;28;20600;-81
2022/10/05 03:45:08;;;;;;;5.55;2.60;;;;;;;13.01;50.29;101362.38;4915957;28;20035;-81
2022/10/05 03:47:54;;;;;;;7.22;2.50;;;;;;;13.08;49.97;101353.31;4985808;28;20057;-78
2022/10/05 03:50:44;;;;;;;4.72;3.13;;;;;;;12.61;51.23;101358.75;4977395;28;20058;-76
2022/10/05 03:53:22;;;;;;;6.60;2.88;;;;;;;13.27;49.63;101348.13;5018716;28;20033;-79
2022/10/05 03:56:22;;;;;;;7.78;2.72;;;;;;;13.22;49.66;101354.50;5000707;28;20038;-80
2022/10/05 03:58:57;;;;;;;4.38;3.20;;;;;;;13.01;50.22;101341.38;5026376;28;20120;-81
2022/10/05 04:01:41;;;;;;;7.20;2.92;;;;;;;13.04;50.43;101333.38;5015298;28;20042;-80
2022/10/05 04:04:14;;;;;;;4.68;2.97;;;;;;;12.61;51.30;101334.31;5008549;28;20112;-79
2022/10/05 04:06:47;;;;;;;4.70;3.17;;;;;;;12.54;51.74;101331.09;5005494;28;20037;-79
2022/10/05 04:09:34;;;;;;;4.15;3.15;;;;;;;12.57;51.77;101335.34;4986337;28;20476;-76
2022/10/05 04:12:13;;;;;;;4.63;2.92;;;;;;;12.88;50.77;101330.56;5014230;28;20507;-79
2022/10/05 04:14:49;;;;;;;4.60;2.20;;;;;;;12.87;51.04;101322.75;4997582;28;20049;-78
2022/10/05 04:17:34;;;;;;;4.00;2.40;;;;;;;12.97;50.64;101323.22;5014025;28;20531;-76
2022/10/05 04:20:15;;;;;;;5.82;2.92;;;;;;;13.15;50.26;101316.31;5004304;28;20053;-77
2022/10/05 04:22:52;;;;;;;6.63;3.00;;;;;;;13.00;50.54;101308.19;5017220;28;20076;-76
2022/10/05 04:25:30;;;;;;;7.65;3.08;;;;;;;12.98;50.43;101304.78;5025180;28;20033;-75
2022/10/05 04:28:06;;;;;;;5.55;3.50;;;;;;;12.99;50.67;101319.59;5022606;28;20045;-78
2022/10/05 04:30:39;;;;;;;7.28;3.35;;;;;;;12.58;51.57;101311.69;5002156;28;20040;-76
2022/10/05 04:33:11;;;;;;;4.70;2.97;;;;;;;12.60;51.75;101308.97;5023694;28;20042;-78
2022/10/05 04:36:05;;;;;;;5.70;3.13;;;;;;;12.75;51.20;101311.00;4992261;28;20025;-78
2022/10/05 04:38:57;;;;;;;5.10;3.28;;;;;;;12.49;51.84;101317.28;5005379;28;20048;-79
2022/10/05 04:41:40;;;;;;;4.25;3.25;;;;;;;12.20;52.66;101311.47;5009438;28;20110;-76
2022/10/05 04:44:12;;;;;;;9.65;3.22;;;;;;;11.56;54.08;101298.22;5011980;28;20049;-78
2022/10/05 04:47:04;;;;;;;5.32;3.00;;;;;;;12.79;51.36;101301.25;4995792;28;20073;-80
2022/10/05 04:50:00;;;;;;;9.63;2.65;;;;;;;12.12;52.90;101302.22;4991128;28;20042;-79
2022/10/05 04:52:58;;;;;;;4.03;3.13;;;;;;;12.59;51.40;101302.91;4974011;28;20045;-79
2022/10/05 04:55:47;;;;;;;6.13;3.03;;;;;;;12.67;51.18;101299.97;4991600;28;20065;-77
2022/10/05 04:58:30;;;;;;;7.28;3.20;;;;;;;12.84;50.96;101302.75;4967111;28;20050;-77
2022/10/05 05:01:31;;;;;;;6.80;3.22;;;;;;;13.02;50.48;101281.88;4992571;28;20030;-78
2022/10/05 05:04:20;;;;;;;5.05;2.50;;;;;;;12.63;51.04;101278.25;4984268;28;20077;-77
2022/10/05 05:07:33;;;;;;;3.30;2.58;;;;;;;12.60;51.54;101288.88;4982229;28;20061;-78
2022/10/05 05:10:21;;;;;;;5.85;2.72;;;;;;;12.97;50.23;101282.09;5001214;28;20053;-78
2022/10/05 05:13:12;;;;;;;4.05;2.75;;;;;;;12.84;50.65;101288.78;5009367;28;20121;-78
2022/10/05 05:15:55;;;;;;;8.18;3.00;;;;;;;12.91;50.47;101277.09;4988978;28;20133;-77
2022/10/05 05:18:43;;;;;;;4.22;2.50;;;;;;;12.60;51.53;101281.03;5004236;28;20080;-78
2022/10/05 05:21:34;;;;;;;5.63;2.70;;;;;;;12.57;51.29;101273.25;4988056;28;20077;-78
2022/10/05 05:24:19;;;;;;;;;;;;;;;12.91;50.25;101266.59;4986866;28;20133;-76
2022/10/05 05:27:17;;;;;;;5.03;3.20;;;;;;;12.53;51.32;101274.31;5004592;28;20173;-77
2022/10/05 05:30:11;;;;;;;4.70;3.47;;;;;;;12.33;51.80;101290.00;5006744;28;20083;-80
2022/10/05 05:32:36;;;;;;;;;;;;;;;12.37;51.99;101281.94;4997549;28;20519;-79
2022/10/05 05:35:40;;;;;;;9.30;3.88;;;;;;;12.17;52.04;101279.28;5007599;28;20898;-77
2022/10/05 05:38:32;;;;;;;5.75;3.42;;;;;;;12.73;50.60;101293.63;4985076;28;20085;-81
2022/10/05 05:41:11;;;;;;;4.60;2.85;;;;;;;12.41;51.77;101274.84;4979894;28;20053;-79
2022/10/05 05:43:49;;;;;;;6.65;3.70;;;;;;;12.40;51.89;101273.09;5002298;28;20054;-77
2022/10/05 05:46:21;;;;;;;4.90;3.85;;;;;;;12.17;52.35;101279.28;5003795;28;20101;-79
2022/10/05 05:48:49;;;;;;;6.38;3.33;;;;;;;12.17;52.25;101288.00;5010852;28;20050;-79
2022/10/05 05:51:27;;;;;;;8.77;3.83;;;;;;;12.41;51.82;101291.41;4987764;28;20049;-79
2022/10/05 05:54:19;;;;;;;6.70;3.20;;;;;;;12.40;51.86;101292.34;5003706;28;20046;-77
2022/10/05 05:56:54;;;;;;;10.98;3.78;;;;;;;12.33;51.94;101279.53;4981068;28;20042;-81
2022/10/05 05:59:44;;;;;;;11.43;4.28;;;;;;;12.16;52.10;101288.94;4997942;28;20045;-80
2022/10/05 06:02:15;;;;;;;6.47;3.78;;;;;;;12.67;50.91;101282.47;4994673;28;20049;-78
2022/10/05 06:04:48;;;;;;;8.77;4.18;;;;;;;12.74;50.87;101283.09;5006421;28;20037;-79
2022/10/05 06:07:21;;;;;;;7.70;3.88;;;;;;;12.73;50.51;101278.75;5019743;28;20124;-79
2022/10/05 06:09:55;;;;;;;11.07;4.15;;;;;;;12.16;52.11;101267.97;5005709;28;20034;-78
2022/10/05 06:12:45;;;;;;;7.65;3.78;;;;;;;12.08;52.68;101268.25;4984576;28;20153;-77
2022/10/05 06:15:37;;;;;;;7.03;4.30;;;;;;;12.45;51.45;101279.03;4988099;28;20092;-79
2022/10/05 06:18:14;;;;;;;6.43;4.07;;;;;;;12.66;50.88;101277.28;5009899;28;20289;-79
2022/10/05 06:20:52;;;;;;;5.75;3.42;;;;;;;11.98;52.53;101273.97;4989483;28;20085;-80
2022/10/05 06:23:31;;;;;;;6.35;3.63;;;;;;;12.80;51.13;101263.59;4986378;28;20062;-79
2022/10/05 06:26:09;;;;;;;11.43;5.40;;;;;;;12.47;51.82;101274.59;5004958;28;20033;-81
2022/10/05 06:28:35;;;;;;;8.70;4.20;;;;;;;12.59;51.12;101270.59;5019097;28;20061;-80
2022/10/05 06:31:10;;;;;;;6.32;3.90;;;;;;;12.19;52.10;101277.47;5009662;28;20025;-78
2022/10/05 06:33:45;;;;;;;8.43;3.83;;;;;;;12.03;52.72;101277.22;4985172;28;20037;-78
2022/10/05 06:36:10;;;;;;;;;;;;;;;12.66;51.38;101277.28;5005077;28;20522;-80
2022/10/05 06:38:57;;;;;;;7.22;3.97;;;;;;;12.16;52.48;101278.44;5018166;28;19921;-77
2022/10/05 06:41:38;;;;;;;6.82;4.70;;;;;;;12.07;53.13;101291.94;4983292;28;20030;-78
2022/10/05 06:44:14;;;;;;;12.23;4.15;;;;;;;12.29;52.08;101284.91;5005700;28;20462;-77
2022/10/05 06:47:08;;;;;;;6.38;4.35;;;;;;;12.52;51.81;101270.00;5019221;28;20041;-79
2022/10/05 06:50:08;;;;;;;7.95;4.18;;;;;;;12.63;51.39;101272.16;5019589;28;20104;-80
2022/10/05 06:53:07;;;;;;;11.25;4.57;;;;;;;12.58;51.38;101285.47;5004053;28;20145;-79
2022/10/05 06:55:46;;;;;;;7.00;4.40;;;;;;;12.42;51.70;101279.13;4995593;28;20029;-83
2022/10/05 06:58:19;;;;;;;9.88;4.28;;;;;;;12.28;52.26;101285.81;5001196;28;20277;-80
2022/10/05 07:00:53;;;;;;;7.97;4.65;;;;;;;12.39;52.03;101289.75;4985793;28;20034;-79
2022/10/05 07:03:28;;;;;;;8.85;4.85;;;;;;;11.84;53.78;101277.97;4984089;28;20125;-78
2022/10/05 07:06:07;;;;;;;8.00;4.85;;;;;;;12.10;52.98;101275.22;5001788;28;20041;-79
2022/10/05 07:08:57;;;;;;;9.55;5.22;;;;;;;12.75;51.53;101283.94;5015445;28;20038;-82
2022/10/05 07:11:30;;;;;;;8.30;4.27;;;;;;;12.52;51.61;101285.72;5005704;28;20447;-81
2022/10/05 07:14:30;;;;;;;13.68;4.97;;;;;;;12.44;52.03;101279.94;5011404;28;20389;-80
2022/10/05 07:17:32;;;;;;;9.05;4.57;;;;;;;12.37;52.01;101294.22;4994742;28;20040;-79
2022/10/05 07:20:23;;;;;;;10.38;5.05;;;;;;;12.65;50.95;101281.66;4936547;28;20549;-79
2022/10/05 07:23:01;;;;;;;10.85;5.25;;;;;;;12.26;52.08;101278.91;4995103;28;20550;-79
2022/10/05 07:25:33;;;;;;;11.27;5.60;;;;;;;12.36;51.70;101285.50;4985440;28;20041;-80
2022/10/05 07:28:07;;;;;;;9.05;4.35;;;;;;;12.64;51.32;101268.59;5008125;28;20136;-78
2022/10/05 07:30:47;;;;;;;10.75;4.50;;;;;;;12.16;52.14;101270.59;5015682;28;20077;-79
2022/10/05 07:33:20;;;;;;;9.75;5.22;;;;;;;12.50;51.12;101270.03;5012953;28;20103;-79
2022/10/05 07:39:15;;;;;;;7.43;4.78;;;;;;;12.04;52.54;101268.44;4999477;28;20115;-80
2022/10/05 07:41:46;;;;;;;10.82;6.95;;;;;;;12.83;51.06;101266.94;4983406;28;20034;-77
2022/10/05 07:44:45;;;;;;;6.70;4.18;;;;;;;12.94;50.59;101268.22;4977356;28;20027;-77
2022/10/05 07:47:21;;;;;;;6.38;4.70;;;;;;;12.86;50.73;101273.81;4972836;28;20108;-77
2022/10/05 07:49:58;;;;;;;7.32;4.57;;;;;;;12.80;50.26;101269.69;4981098;28;20806;-80
2022/10/05 07:52:38;;;;;;;6.35;4.53;;;;;;;13.29;49.35;101271.91;4980917;28;20045;-77
2022/10/05 07:55:24;;;;;;;6.60;4.13;;;;;;;12.43;51.44;101270.38;4999027;28;20531;-78
2022/10/05 07:58:22;;;;;;;9.35;5.05;;;;;;;12.38;51.22;101272.31;4983623;28;20133;-77
2022/10/05 08:00:48;;;;;;;8.00;4.70;;;;;;;12.85;50.33;101261.66;4991305;28;20129;-78
2022/10/05 08:03:41;;;;;;;7.90;4.50;;;;;;;12.65;50.78;101260.69;4982264;28;20476;-78
2022/10/05 08:06:10;;;;;;;;;;;;;;;13.09;49.89;101255.31;5002092;28;20291;-79
2022/10/05 08:09:11;;;;;;;7.28;3.95;;;;;;;13.18;49.64;101258.44;4990749;28;20036;-78
2022/10/05 08:11:50;;;;;;;5.68;3.97;;;;;;;13.34;48.85;101267.34;4996755;28;20115;-79
2022/10/05 08:14:32;;;;;;;6.82;4.38;;;;;;;13.26;48.92;101256.31;4998169;28;20046;-79
2022/10/05 08:17:06;;;;;;;7.70;4.65;;;;;;;13.40;48.95;101259.16;4971995;28;20042;-77
2022/10/05 08:19:52;;;;;;;5.90;3.80;;;;;;;13.04;49.28;101261.66;5015651;28;20030;-78
2022/10/05 08:22:24;;;;;;;3.95;3.03;;;;;;;13.52;48.49;101255.13;4980959;28;20049;-78
2022/10/05 08:25:04;;;;;;;6.13;3.35;;;;;;;13.62;48.20;101250.31;4998153;28;20091;-77
2022/10/05 08:27:50;;;;;;;5.07;3.30;;;;;;;13.26;48.64;101245.81;4975527;28;20045;-78
2022/10/05 08:30:15;;;;;;;5.93;3.63;;;;;;;13.50;48.43;101249.09;4995293;28;20563;-78
2022/10/05 08:32:51;;;;;;;6.35;3.35;;;;;;;13.85;47.52;101250.09;4980641;28;20096;-77
2022/10/05 08:35:32;;;;;;;7.85;3.72;;;;;;;13.98;47.27;101236.34;5001311;28;20042;-78
2022/10/05 08:38:01;;;;;;;4.67;2.73;;;;;;;13.74;48.00;101241.84;4997463;28;20046;-77
2022/10/05 08:40:50;;;;;;;7.70;3.70;;;;;;;13.69;47.37;101243.84;4998745;28;20328;-78
2022/10/05 08:43:34;;;;;;;4.25;3.03;;;;;;;13.15;48.56;101233.19;5015244;28;20053;-79
2022/10/05 08:46:21;;;;;;;4.30;3.25;;;;;;;13.00;49.80;101249.59;4986965;28;20037;-77
2022/10/05 08:49:31;;;;;;;3.97;2.60;;;;;;;13.87;47.97;101247.38;5000192;28;20111;-78
2022/10/05 08:52:21;;;;;;;7.35;3.42;;;;;;;13.85;47.22;101238.72;4984482;28;20125;-80
2022/10/05 08:55:03;;;;;;;6.95;3.72;;;;;;;13.75;47.39;101234.84;5003725;28;20034;-78
2022/10/05 08:58:16;;;;;;;7.55;3.50;;;;;;;14.72;45.31;101231.78;5001330;28;20042;-78
2022/10/05 09:01:12;;;;;;;3.63;2.63;;;;;;;14.09;47.01;101223.53;4947010;28;20077;-77
2022/10/05 09:03:58;;;;;;;6.80;3.25;;;;;;;13.78;47.30;101232.06;4998076;28;20444;-78
2022/10/05 09:06:45;;;;;;;5.35;3.47;;;;;;;13.65;47.36;101226.53;4974875;28;20137;-77
2022/10/05 09:09:44;;;;;;;4.30;3.40;;;;;;;13.79;47.15;101234.63;4983265;28;20146;-77
2022/10/05 09:12:31;;;;;;;4.55;3.13;;;;;;;14.03;47.30;101215.94;4948741;28;20064;-77
2022/10/05 09:15:09;;;;;;;5.13;3.20;;;;;;;14.41;45.84;101218.47;4989967;28;20080;-78
2022/10/05 09:18:12;;;;;;;5.38;2.47;;;;;;;14.25;46.65;101216.56;4975799;28;20049;-80
2022/10/05 09:20:52;;;;;;;5.40;2.55;;;;;;;14.47;46.36;101220.81;5001433;28;20425;-78
2022/10/05 09:23:41;;;;;;;5.53;2.28;;;;;;;14.23;45.99;101202.69;4992872;28;20135;-77
2022/10/05 09:26:39;;;;;;;4.88;2.63;;;;;;;13.98;47.18;101202.19;4999766;28;20142;-79
2022/10/05 09:29:27;;;;;;;5.43;2.55;;;;;;;14.98;44.78;101201.44;4981606;28;20394;-79
2022/10/05 09:32:30;;;;;;;4.82;2.47;;;;;;;14.45;44.90;101175.31;5015146;28;20790;-80
2022/10/05 09:35:26;;;;;;;2.95;2.65;;;;;;;15.67;43.48;101198.63;4983371;28;20176;-78
2022/10/05 09:38:30;;;;;;;5.43;3.00;;;;;;;15.59;43.65;101194.63;4977141;28;20145;-80
2022/10/05 09:41:02;;;;;;;4.47;2.97;;;;;;;14.58;45.54;101196.59;4989556;28;20068;-79
2022/10/05 09:43:48;;;;;;;4.57;2.85;;;;;;;14.71;44.53;101187.13;4981621;28;20046;-78
2022/10/05 09:46:31;;;;;;;6.50;2.38;;;;;;;14.94;44.95;101194.63;4947142;28;20049;-76
2022/10/05 09:49:19;;;;;;;5.90;2.35;;;;;;;14.93;44.53;101197.38;4982982;28;20049;-78
2022/10/05 09:51:50;;;;;;;7.68;2.50;;;;;;;14.79;45.25;101194.59;4985064;28;20045;-77
2022/10/05 09:54:34;;;;;;;2.95;2.40;;;;;;;14.88;45.10;101189.72;5002020;28;20046;-78
2022/10/05 09:57:11;;;;;;;5.22;2.03;;;;;;;14.29;45.95;101191.84;4999395;28;20565;-78
2022/10/05 09:59:52;;;;;;;6.57;2.97;;;;;;;15.13;44.52;101188.41;4981518;28;20125;-78
2022/10/05 10:02:35;;;;;;;6.00;3.13;;;;;;;14.72;44.92;101178.28;4982179;28;20054;-78
2022/10/05 10:05:13;;;;;;;3.97;2.65;;;;;;;14.43;46.20;101172.75;4990700;28;20029;-77
2022/10/05 10:07:51;;;;;;;3.63;2.97;;;;;;;14.69;45.42;101174.03;4979820;28;20039;-79
2022/10/05 10:10:22;;;;;;;4.25;2.60;;;;;;;14.79;45.48;101182.31;4998115;28;20034;-77
2022/10/05 10:13:21;;;;;;;6.07;2.90;;;;;;;14.04;47.01;101175.63;5002805;28;20106;-80
2022/10/05 10:16:11;;;;;;;3.22;2.72;;;;;;;14.42;46.13;101172.84;4992126;28;20049;-77
2022/10/05 10:18:56;;;;;;;2.90;2.10;;;;;;;14.87;45.83;101181.88;4986769;28;20463;-79
2022/10/05 10:21:41;;;;;;;4.68;2.78;;;;;;;14.93;45.21;101176.31;4995846;28;20054;-78
2022/10/05 10:24:13;;;;;;;5.63;2.47;;;;;;;14.79;45.04;101169.16;4993408;28;20123;-76
2022/10/05 10:26:54;;;;;;;4.82;2.47;;;;;;;14.61;45.46;101165.69;5016256;28;20053;-77
2022/10/05 10:29:45;;;;;;;2.90;2.25;;;;;;;14.27;46.14;101166.56;4989964;28;20046;-80
2022/10/05 10:32:56;;;;;;;3.05;2.10;;;;;;;13.90;47.27;101178.94;5009646;28;20305;-80
2022/10/05 10:35:33;;;;;;;5.90;2.30;;;;;;;14.54;45.89;101159.06;4997124;28;20049;-81
2022/10/05 10:37:58;;;;;;;5.70;1.85;;;;;;;14.19;45.84;101143.31;4997219;28;20038;-77
2022/10/05 10:40:37;;;;;;;3.00;2.13;;;;;;;14.60;45.82;101168.41;4980351;28;20112;-78
2022/10/05 10:43:34;;;;;;;3.95;1.55;;;;;;;13.99;46.78;101167.97;4995811;28;20046;-78
2022/10/05 10:46:15;;;;;;;2.75;1.85;;;;;;;14.18;46.85;101167.88;5008389;28;20438;-79
2022/10/05 10:48:56;;;;;;;2.78;1.83;;;;;;;14.23;46.21;101171.16;4981605;28;20105;-80
2022/10/05 10:51:34;;;;;;;2.07;1.70;;;;;;;14.34;46.27;101166.19;5020277;28;20038;-78
2022/10/05 10:54:24;;;;;;;2.97;1.83;;;;;;;13.83;47.28;101162.63;4996714;28;20042;-76
2022/10/05 10:57:02;;;;;;;6.10;1.55;;;;;;;14.98;44.58;101166.38;4980168;28;20117;-79
2022/10/05 10:59:43;;;;;;;2.90;2.15;;;;;;;13.98;46.52;101161.00;5013653;28;20609;-80
2022/10/05 11:02:37;;;;;;;2.65;1.85;;;;;;;14.18;45.65;101161.78;5003430;28;20404;-79
2022/10/05 11:06:00;;;;;;;3.00;1.90;;;;;;;14.25;45.91;101161.38;4985877;28;20045;-76
2022/10/05 11:08:31;;;;;;;4.03;2.17;;;;;;;13.75;47.07;101174.44;4912889;29;20057;-76
2022/10/05 11:11:00;;;;;;;;;;;;;;;14.02;45.99;101162.53;4900088;29;20234;-79
2022/10/05 11:13:31;;;;;;;2.72;1.85;;;;;;;14.27;45.45;101198.94;4969932;28;20326;-76
2022/10/05 11:16:18;;;;;;;2.35;1.90;;;;;;;14.19;45.47;101171.34;4987415;28;20133;-77
2022/10/05 11:19:04;;;;;;;3.17;1.67;;;;;;;13.63;47.79;101174.09;4996902;28;20579;-79
2022/10/05 11:22:04;;;;;;;5.97;2.05;;;;;;;13.07;48.34;101161.81;4998531;28;20030;-79
2022/10/05 11:24:42;;;;;;;3.30;2.40;;;;;;;13.77;47.24;101152.41;4996423;28;20060;-78
2022/10/05 11:27:32;;;;;;;2.13;1.92;;;;;;;13.94;46.35;101152.44;4977070;28;20045;-76
2022/10/05 11:30:01;;;;;;;3.08;1.98;;;;;;;14.48;45.84;101156.78;4998178;28;20034;-79
2022/10/05 11:32:52;;;;;;;2.90;1.73;;;;;;;14.31;45.88;101166.31;4989188;28;20120;-74
2022/10/05 11:35:24;;;;;;;2.40;2.03;;;;;;;14.32;45.46;101154.91;4981094;28;20101;-80
2022/10/05 11:38:08;;;;;;;;;;;;;;;13.56;46.98;101146.38;4990429;28;20053;-77
2022/10/05 11:40:55;;;;;;;3.05;2.35;;;;;;;14.01;45.96;101154.72;4998024;28;19922;-78
2022/10/05 11:43:31;;;;;;;5.20;3.10;;;;;;;13.98;46.53;101145.22;4973521;28;20053;-79
2022/10/05 11:46:05;;;;;;;5.97;3.33;;;;;;;13.93;46.29;101148.09;4980097;28;20096;-79
2022/10/05 11:49:07;;;;;;;6.93;2.58;;;;;;;13.96;46.60;101146.22;5012068;28;20041;-77
2022/10/05 11:51:43;;;;;;;5.88;2.92;;;;;;;14.57;45.28;101148.41;4988654;28;20029;-79
2022/10/05 11:54:08;;;;;;;3.72;3.33;;;;;;;13.94;45.93;101139.28;4997153;28;20204;-79
2022/10/05 11:57:02;;;;;;;5.78;3.15;;;;;;;13.25;47.78;101141.72;4980715;28;20124;-77
2022/10/05 11:59:34;;;;;;;4.00;2.92;;;;;;;13.76;46.41;101153.31;4979147;28;20766;-79
2022/10/05 12:02:03;;;;;;;4.05;3.13;;;;;;;14.05;46.24;101157.13;4979226;28;20056;-78
2022/10/05 12:05:06;;;;;;;3.78;2.67;;;;;;;14.38;45.56;101147.63;4997853;28;20065;-77
2022/10/05 12:07:43;;;;;;;6.05;3.50;;;;;;;14.32;46.05;101154.91;5011232;28;20604;-78
2022/10/05 12:10:33;;;;;;;3.80;3.35;;;;;;;13.87;46.71;101152.78;4997349;28;20045;-78
2022/10/05 12:13:26;;;;;;;3.67;2.85;;;;;;;13.30;47.59;101148.47;4988323;28;20068;-76
2022/10/05 12:16:01;;;;;;;3.55;3.25;;;;;;;14.04;45.95;101152.81;4982867;28;20056;-78
2022/10/05 12:18:30;;;;;;;5.00;2.75;;;;;;;12.93;48.51;101149.31;4999474;28;20434;-78
2022/10/05 12:21:23;;;;;;;4.63;3.15;;;;;;;13.20;47.90;101149.81;5000223;28;20514;-78
2022/10/05 12:23:54;;;;;;;6.05;2.95;;;;;;;13.72;46.88;101143.91;4981228;28;20189;-78
2022/10/05 12:26:24;;;;;;;5.15;2.97;;;;;;;13.62;47.59;101147.91;4996046;28;20038;-78
2022/10/05 12:29:26;;;;;;;6.57;3.40;;;;;;;13.57;47.75;101147.28;4982837;28;20141;-77
2022/10/05 12:31:52;;;;;;;3.50;3.20;;;;;;;13.93;46.83;101137.56;4960670;28;20472;-79
2022/10/05 12:34:36;;;;;;;4.95;2.85;;;;;;;13.87;47.07;101134.41;5004378;28;20033;-79
2022/10/05 12:37:08;;;;;;;3.22;2.42;;;;;;;13.66;47.61;101133.69;4999607;28;20057;-81
2022/10/05 12:39:53;;;;;;;3.75;2.72;;;;;;;13.55;47.44;101142.06;4984534;28;20089;-80
2022/10/05 12:42:34;;;;;;;5.25;3.22;;;;;;;13.76;47.37;101140.19;5004552;28;20362;-80